createdAt,value
2018-09-08T00:02:03.174Z,97502.52
2018-09-08T00:04:29.932Z,97503.55
2018-09-08T00:06:56.625Z,97505.33
2018-09-08T00:09:24.647Z,97505.80
2018-09-08T00:11:51.439Z,97513.34
2018-09-08T00:14:18.098Z,97511.84
2018-09-08T00:16:46.154Z,97514.63
2018-09-08T00:19:12.920Z,97511.45
2018-09-08T00:21:40.539Z,97510.88
2018-09-08T00:24:07.376Z,97513.22
2018-09-08T00:26:33.992Z,97513.48
2018-09-08T00:29:01.195Z,97517.26
2018-09-08T00:36:44.722Z,97516.95
2018-09-08T00:39:11.793Z,97517.30
2018-09-08T00:41:39.694Z,97512.31
2018-09-08T00:44:09.439Z,97512.72
2018-09-08T00:46:36.145Z,97514.08
2018-09-08T00:49:02.752Z,97519.53
2018-09-08T00:51:30.889Z,97516.41
2018-09-08T00:53:58.574Z,97520.22
2018-09-08T00:56:25.645Z,97523.73
2018-09-08T00:58:52.873Z,97523.28
2018-09-08T01:01:19.881Z,97527.02
2018-09-08T01:03:48.360Z,97530.81
2018-09-08T01:08:48.086Z,97532.45
2018-09-08T01:11:15.757Z,97531.75
2018-09-08T01:13:44.714Z,97532.17
2018-09-08T01:16:12.384Z,97534.31
2018-09-08T01:18:39.558Z,97535.64
2018-09-08T01:21:08.793Z,97542.58
2018-09-08T01:23:37.197Z,97542.34
2018-09-08T01:26:05.498Z,97541.24
2018-09-08T01:28:33.546Z,97546.36
2018-09-08T01:31:01.283Z,97544.30
2018-09-08T01:33:28.868Z,97548.73
2018-09-08T01:35:56.586Z,97546.89
2018-09-08T01:40:54.935Z,97542.06
2018-09-08T01:43:24.356Z,97544.39
2018-09-08T01:45:52.898Z,97544.11
2018-09-08T01:50:56.152Z,97549.36
2018-09-08T01:53:23.853Z,97552.66
2018-09-08T01:55:52.681Z,97552.38
2018-09-08T01:58:20.938Z,97554.37
2018-09-08T02:00:49.030Z,97557.44
2018-09-08T02:03:17.690Z,97560.80
2018-09-08T02:08:19.163Z,97571.44
2018-09-08T02:10:49.055Z,97570.01
2018-09-08T02:13:21.148Z,97574.31
2018-09-08T02:15:49.351Z,97579.00
2018-09-08T02:18:17.809Z,97575.11
2018-09-08T02:23:20.527Z,97573.73
2018-09-08T02:25:49.207Z,97573.97
2018-09-08T02:28:18.315Z,97575.88
2018-09-08T02:30:47.645Z,97578.28
2018-09-08T02:33:16.640Z,97578.59
2018-09-08T02:38:23.148Z,97576.36
2018-09-08T02:40:51.689Z,97574.90
2018-09-08T02:48:25.663Z,97577.22
2018-09-08T02:50:55.589Z,97581.09
2018-09-08T02:53:23.953Z,97590.34
2018-09-08T02:58:26.497Z,97593.70
2018-09-08T03:03:28.477Z,97588.95
2018-09-08T03:08:34.119Z,97592.30
2018-09-08T03:11:04.088Z,97599.95
2018-09-08T03:13:33.116Z,97599.02
2018-09-08T03:16:00.342Z,97601.63
2018-09-08T03:18:28.909Z,97605.02
2018-09-08T03:20:59.264Z,97599.31
2018-09-08T03:23:30.494Z,97605.33
2018-09-08T03:28:30.679Z,97607.22
2018-09-08T03:31:00.481Z,97602.45
2018-09-08T03:33:31.045Z,97598.92
2018-09-08T03:35:59.721Z,97604.16
2018-09-08T03:38:29.160Z,97611.10
2018-09-08T03:41:00.378Z,97611.70
2018-09-08T03:43:30.992Z,97613.39
2018-09-08T03:46:00.108Z,97606.59
2018-09-08T03:51:00.136Z,97625.30
2018-09-08T03:53:30.619Z,97625.19
2018-09-08T03:56:04.045Z,97628.28
2018-09-08T03:58:34.623Z,97633.14
2018-09-08T04:01:02.689Z,97632.94
2018-09-08T04:03:35.946Z,97632.44
2018-09-08T04:11:09.752Z,97636.95
2018-09-08T04:13:41.122Z,97638.22
2018-09-08T04:16:15.956Z,97645.05
2018-09-08T04:21:17.611Z,97652.34
2018-09-08T04:23:48.684Z,97651.06
2018-09-08T04:31:25.927Z,97664.09
2018-09-08T04:33:55.362Z,97667.25
2018-09-08T04:36:22.875Z,97669.38
2018-09-08T04:38:52.277Z,97671.15
2018-09-08T04:41:23.542Z,97672.48
2018-09-08T04:43:51.762Z,97673.73
2018-09-08T04:46:21.379Z,97673.12
2018-09-08T04:48:49.874Z,97681.63
2018-09-08T04:51:19.632Z,97691.59
2018-09-08T04:53:52.727Z,97684.97
2018-09-08T04:56:23.625Z,97684.80
2018-09-08T04:58:51.364Z,97687.13
2018-09-08T05:01:18.983Z,97690.77
2018-09-08T05:03:47.904Z,97693.80
2018-09-08T05:06:20.561Z,97703.41
2018-09-08T05:08:50.097Z,97704.13
2018-09-08T05:11:19.347Z,97702.92
2018-09-08T05:13:47.185Z,97712.28
2018-09-08T05:16:15.404Z,97713.16
2018-09-08T05:21:17.726Z,97720.02
2018-09-08T05:23:49.099Z,97726.04
2018-09-08T05:31:28.047Z,97736.34
2018-09-08T05:36:29.167Z,97738.27
2018-09-08T05:38:57.961Z,97739.00
2018-09-08T05:43:56.536Z,97742.81
2018-09-08T05:46:25.725Z,97741.05
2018-09-08T05:48:56.860Z,97750.92
2018-09-08T05:51:28.546Z,97745.98
2018-09-08T05:53:57.284Z,97747.36
2018-09-08T05:56:32.509Z,97747.89
2018-09-08T06:01:38.900Z,97748.92
2018-09-08T06:06:41.590Z,97752.75
2018-09-08T06:09:09.673Z,97758.16
2018-09-08T06:11:39.844Z,97756.02
2018-09-08T06:14:13.431Z,97756.02
2018-09-08T06:16:48.808Z,97757.03
2018-09-08T06:19:21.936Z,97756.38
2018-09-08T06:21:53.524Z,97759.49
2018-09-08T06:24:22.598Z,97769.66
2018-09-08T06:26:50.967Z,97760.30
2018-09-08T06:29:24.034Z,97758.48
2018-09-08T06:31:54.181Z,97761.33
2018-09-08T06:34:21.475Z,97761.97
2018-09-08T06:36:49.313Z,97763.19
2018-09-08T06:39:19.694Z,97762.64
2018-09-08T06:41:53.493Z,97761.05
2018-09-08T06:44:25.067Z,97766.71
2018-09-08T06:46:52.940Z,97762.84
2018-09-08T06:51:53.648Z,97768.26
2018-09-08T06:54:21.739Z,97769.80
2018-09-08T06:56:51.450Z,97767.58
2018-09-08T06:59:19.448Z,97772.20
2018-09-08T07:01:47.535Z,97778.13
2018-09-08T07:04:16.075Z,97778.77
2018-09-08T07:06:45.945Z,97785.55
2018-09-08T07:09:18.085Z,97791.69
2018-09-08T07:11:48.500Z,97787.64
2018-09-08T07:14:19.857Z,97784.49
2018-09-08T07:16:51.113Z,97796.14
2018-09-08T07:19:20.654Z,97797.58
2018-09-08T07:21:50.012Z,97799.42
2018-09-08T07:29:30.452Z,97788.41
2018-09-08T07:32:00.307Z,97794.70
2018-09-08T07:34:28.819Z,97793.45
2018-09-08T07:39:37.030Z,97793.92
2018-09-08T07:42:06.506Z,97801.73
2018-09-08T07:49:38.395Z,97806.13
2018-09-08T07:52:10.442Z,97800.27
2018-09-08T07:59:47.789Z,97820.76
2018-09-08T08:02:18.872Z,97819.44
2018-09-08T08:04:48.668Z,97813.77
2018-09-08T08:07:20.340Z,97820.11
2018-09-08T08:09:51.713Z,97816.22
2018-09-08T08:12:22.772Z,97822.98
2018-09-08T08:14:54.056Z,97825.86
2018-09-08T08:17:23.346Z,97819.41
2018-09-08T08:22:30.478Z,97823.44
2018-09-08T08:24:59.666Z,97830.67
2018-09-08T08:29:59.434Z,97828.05
2018-09-08T08:32:28.229Z,97827.47
2018-09-08T08:42:38.498Z,97832.34
2018-09-08T08:45:09.939Z,97828.48
2018-09-08T08:47:40.926Z,97826.07
2018-09-08T08:55:21.100Z,97817.42
2018-09-08T08:57:50.504Z,97820.87
2018-09-08T09:02:52.582Z,97819.39
2018-09-08T09:07:56.096Z,97819.89
2018-09-08T09:10:27.872Z,97815.39
2018-09-08T09:15:32.878Z,97810.67
2018-09-08T09:18:02.767Z,97813.25
2018-09-08T09:20:34.875Z,97814.08
2018-09-08T09:23:02.925Z,97814.36
2018-09-08T09:25:31.309Z,97813.27
2018-09-08T09:27:59.544Z,97806.21
2018-09-08T09:35:34.170Z,97813.00
2018-09-08T09:43:14.591Z,97807.25
2018-09-08T09:50:55.305Z,97795.95
2018-09-08T09:55:57.651Z,97801.20
2018-09-08T09:58:27.210Z,97809.31
2018-09-08T10:00:55.884Z,97799.58
2018-09-08T10:11:09.316Z,97790.13
2018-09-08T10:18:41.223Z,97792.44
2018-09-08T10:24:04.350Z,97794.47
2018-09-08T10:28:49.834Z,97786.30
2018-09-08T10:31:20.141Z,97793.77
2018-09-08T10:44:05.513Z,97790.64
2018-09-08T10:49:15.100Z,97786.83
2018-09-08T10:51:44.440Z,97787.67
2018-09-08T10:54:14.767Z,97786.38
2018-09-08T10:56:44.513Z,97780.98
2018-09-08T11:01:55.847Z,97781.10
2018-09-08T11:04:25.158Z,97792.52
2018-09-08T11:14:37.839Z,97794.34
2018-09-08T11:24:58.110Z,97796.55
2018-09-08T11:32:41.004Z,97799.56
2018-09-08T11:35:13.025Z,97802.84
2018-09-08T11:37:41.690Z,97807.78
2018-09-08T11:42:47.632Z,97805.25
2018-09-08T11:53:06.086Z,97803.88
2018-09-08T12:00:42.998Z,97792.16
2018-09-08T12:05:49.859Z,97792.69
2018-09-08T12:10:57.036Z,97781.86
2018-09-08T12:13:27.332Z,97779.20
2018-09-08T12:15:57.648Z,97781.33
2018-09-08T12:21:01.955Z,97778.82
2018-09-08T12:23:32.775Z,97788.32
2018-09-08T12:26:02.093Z,97779.67
2018-09-08T12:31:14.837Z,97771.35
2018-09-08T12:33:48.584Z,97777.50
2018-09-08T12:41:27.020Z,97775.88
2018-09-08T12:49:09.640Z,97770.84
2018-09-08T12:54:11.162Z,97776.59
2018-09-08T12:56:42.359Z,97772.26
2018-09-08T13:01:51.951Z,97768.70
2018-09-08T13:06:53.127Z,97769.69
2018-09-08T13:09:24.491Z,97769.88
2018-09-08T13:11:52.633Z,97772.59
2018-09-08T13:14:30.050Z,97766.88
2018-09-08T13:19:41.562Z,97766.52
2018-09-08T13:22:10.352Z,97764.28
2018-09-08T13:24:43.244Z,97766.56
2018-09-08T13:34:56.024Z,97746.92
2018-09-08T13:37:30.507Z,97743.39
2018-09-08T13:40:02.741Z,97745.61
2018-09-08T13:42:34.634Z,97753.42
2018-09-08T13:45:05.540Z,97749.95
2018-09-08T13:47:34.831Z,97755.14
2018-09-08T13:50:03.464Z,97750.91
2018-09-08T13:52:34.475Z,97753.91
2018-09-08T13:55:08.006Z,97751.34
2018-09-08T13:57:36.474Z,97756.67
2018-09-08T14:05:20.134Z,97748.67
2018-09-08T14:07:51.410Z,97745.02
2018-09-08T14:20:51.094Z,97735.22
2018-09-08T14:23:18.944Z,97730.04
2018-09-08T14:25:47.108Z,97739.39
2018-09-08T14:28:16.957Z,97738.21
2018-09-08T14:30:47.394Z,97735.42
2018-09-08T14:38:32.951Z,97741.35
2018-09-08T14:46:06.392Z,97748.30
2018-09-08T14:51:10.342Z,97752.75
2018-09-08T14:56:15.031Z,97755.66
2018-09-08T14:58:42.888Z,97755.95
2018-09-08T15:06:34.971Z,97752.32
2018-09-08T15:09:06.771Z,97763.17
2018-09-08T15:14:09.316Z,97763.86
2018-09-08T15:24:42.359Z,97783.53
2018-09-08T15:27:10.112Z,97787.70
2018-09-08T15:29:40.995Z,97787.45
2018-09-08T15:32:07.647Z,97791.89
2018-09-08T15:34:38.401Z,97795.47
2018-09-08T15:37:06.316Z,97792.64
2018-09-08T15:39:36.260Z,97792.21
2018-09-08T15:44:43.585Z,97785.01
2018-09-08T15:47:12.714Z,97787.76
2018-09-08T16:00:25.718Z,97785.52
2018-09-08T16:02:55.962Z,97791.56
2018-09-08T16:05:26.479Z,97783.63
2018-09-08T16:10:31.554Z,97787.53
2018-09-08T16:12:59.304Z,97791.38
2018-09-08T16:18:15.960Z,97790.23
2018-09-08T16:23:18.704Z,97794.16
2018-09-08T16:25:53.237Z,97793.41
2018-09-08T16:28:21.715Z,97791.95
2018-09-08T16:30:55.486Z,97795.41
2018-09-08T16:33:23.592Z,97798.98
2018-09-08T16:35:59.573Z,97797.25
2018-09-08T16:38:31.142Z,97797.23
2018-09-08T16:41:02.173Z,97800.69
2018-09-08T16:43:30.506Z,97804.97
2018-09-08T16:45:59.671Z,97799.08
2018-09-08T16:48:29.076Z,97799.64
2018-09-08T16:50:59.525Z,97802.64
2018-09-08T16:58:37.447Z,97803.28
2018-09-08T17:01:07.728Z,97804.05
2018-09-08T17:03:36.736Z,97810.43
2018-09-08T17:06:07.783Z,97814.50
2018-09-08T17:08:38.700Z,97813.61
2018-09-08T17:16:31.828Z,97826.67
2018-09-08T17:21:34.658Z,97821.27
2018-09-08T17:24:05.579Z,97826.84
2018-09-08T17:26:35.323Z,97836.08
2018-09-08T17:36:44.407Z,97840.58
2018-09-08T17:39:15.172Z,97845.44
2018-09-08T17:41:45.714Z,97842.48
2018-09-08T17:44:17.108Z,97846.16
2018-09-08T17:46:46.283Z,97842.64
2018-09-08T17:49:20.938Z,97846.65
2018-09-08T17:51:50.523Z,97851.73
2018-09-08T17:54:21.850Z,97857.57
2018-09-08T17:59:25.174Z,97861.18
2018-09-08T18:04:26.063Z,97877.71
2018-09-08T18:06:54.547Z,97880.63
2018-09-08T18:09:24.137Z,97882.48
2018-09-08T18:11:53.120Z,97883.07
2018-09-08T18:16:58.186Z,97891.21
2018-09-08T18:19:28.582Z,97893.31
2018-09-08T18:21:57.151Z,97893.70
2018-09-08T18:24:28.202Z,97900.02
2018-09-08T18:29:29.013Z,97908.05
2018-09-08T18:32:00.374Z,97901.73
2018-09-08T18:34:31.172Z,97899.91
2018-09-08T18:36:59.982Z,97900.73
2018-09-08T18:39:30.224Z,97900.05
2018-09-08T18:41:59.680Z,97903.45
2018-09-08T18:44:28.631Z,97906.33
2018-09-08T18:47:00.423Z,97905.63
2018-09-08T18:49:31.301Z,97909.31
2018-09-08T18:52:00.559Z,97909.73
2018-09-08T18:54:29.520Z,97912.29
2018-09-08T18:56:58.682Z,97916.84
2018-09-08T18:59:28.739Z,97916.47
2018-09-08T19:01:58.352Z,97923.42
2018-09-08T19:04:27.750Z,97929.73
2018-09-08T19:07:00.596Z,97933.41
2018-09-08T19:09:29.962Z,97941.93
2018-09-08T19:11:59.634Z,97942.16
2018-09-08T19:14:29.230Z,97948.10
2018-09-08T19:17:00.416Z,97952.25
2018-09-08T19:19:34.221Z,97947.34
2018-09-08T19:22:08.844Z,97949.70
2018-09-08T19:27:13.215Z,97952.48
2018-09-08T19:32:18.439Z,97952.20
2018-09-08T19:34:53.370Z,97952.34
2018-09-08T19:40:05.041Z,97948.52
2018-09-08T19:42:33.376Z,97952.94
2018-09-08T19:45:02.717Z,97961.89
2018-09-08T19:47:30.443Z,97953.33
2018-09-08T19:57:36.546Z,97959.16
2018-09-08T20:02:39.639Z,97955.70
2018-09-08T20:05:07.100Z,97947.95
2018-09-08T20:07:36.228Z,97947.12
2018-09-08T20:10:04.152Z,97948.09
2018-09-08T20:12:32.595Z,97951.33
2018-09-08T20:15:02.851Z,97952.87
2018-09-08T20:17:30.274Z,97945.13
2018-09-08T20:20:00.734Z,97941.97
2018-09-08T20:25:03.522Z,97949.92
2018-09-08T20:27:31.984Z,97944.63
2018-09-08T20:30:04.451Z,97946.66
2018-09-08T20:35:07.966Z,97956.70
2018-09-08T20:37:36.382Z,97958.92
2018-09-08T20:40:07.365Z,97959.84
2018-09-08T20:42:38.270Z,97962.44
2018-09-08T20:45:05.817Z,97958.62
2018-09-08T20:47:34.028Z,97958.87
2018-09-08T20:50:01.864Z,97958.59
2018-09-08T20:52:33.960Z,97970.51
2018-09-08T20:55:02.129Z,97967.08
2018-09-08T20:57:29.048Z,97964.09
2018-09-08T20:59:58.859Z,97964.73
2018-09-08T21:02:27.748Z,97962.94
2018-09-08T21:04:56.743Z,97956.59
2018-09-08T21:07:25.595Z,97962.08
2018-09-08T21:09:53.210Z,97962.97
2018-09-08T21:12:23.594Z,97962.91
2018-09-08T21:14:51.665Z,97961.27
2018-09-08T21:17:22.365Z,97964.09
2018-09-08T21:19:54.413Z,97972.80
2018-09-08T21:22:24.129Z,97976.23
2018-09-08T21:24:52.114Z,97969.89
2018-09-08T21:27:22.087Z,97962.41
2018-09-08T21:29:54.468Z,97967.72
2018-09-08T21:32:25.867Z,97974.48
2018-09-08T21:34:59.439Z,97973.37
2018-09-08T21:37:32.880Z,97978.57
2018-09-08T21:40:01.194Z,97968.14
2018-09-08T21:42:31.463Z,97966.35
2018-09-08T21:45:03.315Z,97966.87
2018-09-08T21:47:30.916Z,97968.73
2018-09-08T21:50:01.157Z,97968.80
2018-09-08T21:52:29.856Z,97968.64
2018-09-08T21:57:31.795Z,97971.16
2018-09-08T22:00:02.428Z,97971.52
2018-09-08T22:02:32.088Z,97972.92
2018-09-08T22:10:06.432Z,97968.70
2018-09-08T22:17:40.370Z,97965.77
2018-09-08T22:25:14.151Z,97965.77
2018-09-08T22:30:23.194Z,97969.90
2018-09-08T22:32:56.956Z,97971.95
2018-09-08T22:35:35.060Z,97973.82
2018-09-08T22:40:43.536Z,97976.70
2018-09-08T22:43:12.447Z,97978.16
2018-09-08T22:48:21.345Z,97974.75
2018-09-08T22:50:53.972Z,97978.10
2018-09-08T22:53:24.204Z,97975.09
2018-09-08T22:58:29.570Z,97969.66
2018-09-08T23:01:01.738Z,97976.45
2018-09-08T23:03:32.451Z,97980.30
2018-09-08T23:08:35.028Z,97986.27
2018-09-08T23:11:04.424Z,97983.72
2018-09-08T23:13:34.687Z,97982.95
2018-09-08T23:16:07.578Z,97987.13
2018-09-08T23:21:21.432Z,97987.75
2018-09-08T23:26:26.236Z,97984.89
2018-09-08T23:28:54.928Z,97990.89
2018-09-08T23:44:04.120Z,97985.79
2018-09-08T23:49:09.466Z,97988.11
2018-09-08T23:54:14.387Z,97985.79
2018-09-08T23:56:43.892Z,97988.65
2018-09-08T23:59:12.555Z,97982.69
